createdAt,value
2018-07-09T06:57:58.879Z,19.60
2018-07-09T07:00:29.782Z,20.60
2018-07-09T07:02:58.454Z,20.50
2018-07-09T07:05:27.211Z,20.50
2018-07-09T07:07:55.825Z,20.50
2018-07-09T07:10:24.776Z,20.60
2018-07-09T07:12:54.953Z,20.80
2018-07-09T07:15:23.625Z,20.90
2018-07-09T07:17:52.212Z,21.20
2018-07-09T07:20:20.867Z,21.30
2018-07-09T07:22:51.998Z,21.40
2018-07-09T07:25:21.844Z,21.60
2018-07-09T07:27:51.510Z,21.80
2018-07-09T07:30:20.413Z,22.10
2018-07-09T07:32:51.862Z,22.10
2018-07-09T07:35:21.528Z,22.00
2018-07-09T07:37:50.399Z,22.10
2018-07-09T07:40:19.234Z,22.00
2018-07-09T07:42:48.718Z,22.10
2018-07-09T07:45:17.620Z,22.30
2018-07-09T07:47:46.373Z,22.60
2018-07-09T07:50:17.544Z,22.70
2018-07-09T07:52:47.456Z,23.00
2018-07-09T07:55:16.183Z,23.20
2018-07-09T07:57:44.842Z,23.10
2018-07-09T08:00:14.647Z,22.80
2018-07-09T08:02:44.924Z,22.80
2018-07-09T08:05:13.476Z,22.70
2018-07-09T08:07:45.350Z,22.60
2018-07-09T08:10:18.681Z,22.50
2018-07-09T08:15:42.813Z,21.90
2018-07-09T08:18:11.409Z,21.50
2018-07-09T08:20:41.711Z,21.40
2018-07-09T08:23:10.449Z,21.20
2018-07-09T08:25:40.278Z,21.00
2018-07-09T08:28:09.571Z,21.10
2018-07-09T08:30:38.529Z,21.10
2018-07-09T08:35:35.474Z,21.00
2018-07-09T08:38:06.612Z,21.00
2018-07-09T08:40:35.684Z,21.00
2018-07-09T08:43:05.265Z,20.90
2018-07-09T08:45:33.765Z,20.90
2018-07-09T08:48:02.393Z,20.90
2018-07-09T08:50:32.518Z,20.80
2018-07-09T08:53:02.186Z,20.80
2018-07-09T08:55:30.790Z,20.90
2018-07-09T08:57:59.287Z,21.00
2018-07-09T09:00:28.436Z,21.20
2018-07-09T09:02:56.992Z,21.40
2018-07-09T09:05:25.646Z,21.60
2018-07-09T09:07:59.060Z,22.10
2018-07-09T09:10:27.926Z,22.70
2018-07-09T09:15:25.404Z,24.10
2018-07-09T09:17:54.058Z,24.70
2018-07-09T09:20:22.609Z,25.00
2018-07-09T09:22:51.227Z,25.00
2018-07-09T09:25:20.507Z,24.80
2018-07-09T09:27:49.632Z,24.80
2018-07-09T09:30:18.211Z,24.80
2018-07-09T09:32:47.496Z,24.80
2018-07-09T09:35:16.061Z,25.00
2018-07-09T09:37:46.171Z,25.00
2018-07-09T09:40:15.357Z,25.00
2018-07-09T09:42:44.575Z,25.20
2018-07-09T09:45:13.286Z,25.10
2018-07-09T09:47:41.891Z,25.00
2018-07-09T09:50:10.389Z,24.90
2018-07-09T09:52:39.341Z,24.60
2018-07-09T09:55:08.114Z,24.40
2018-07-09T09:57:37.744Z,24.50
2018-07-09T10:00:07.380Z,24.70
2018-07-09T10:02:36.938Z,24.90
2018-07-09T10:05:07.818Z,25.10
2018-07-09T10:07:41.464Z,25.20
2018-07-09T10:10:10.117Z,25.30
2018-07-09T10:12:39.375Z,25.70
2018-07-09T10:15:08.218Z,26.10
2018-07-09T10:17:36.919Z,26.30
2018-07-09T10:20:05.642Z,26.50
2018-07-09T10:22:35.775Z,26.50
2018-07-09T10:25:04.466Z,26.90
2018-07-09T10:27:34.934Z,26.90
2018-07-09T10:30:03.683Z,27.10
2018-07-09T10:32:32.956Z,26.90
2018-07-09T10:39:58.971Z,25.80
2018-07-09T10:42:29.513Z,25.30
2018-07-09T10:44:59.380Z,25.10
2018-07-09T10:47:29.584Z,24.90
2018-07-09T10:49:59.641Z,24.80
2018-07-09T10:52:30.777Z,25.10
2018-07-09T10:54:59.392Z,25.10
2018-07-09T10:57:28.052Z,25.10
2018-07-09T10:59:56.683Z,24.90
2018-07-09T11:02:26.134Z,24.70
2018-07-09T11:07:30.081Z,25.20
2018-07-09T11:10:00.388Z,25.20
2018-07-09T11:12:30.511Z,24.80
2018-07-09T11:15:00.996Z,24.30
2018-07-09T11:17:29.602Z,24.00
2018-07-09T11:19:58.187Z,23.70
2018-07-09T11:22:29.592Z,23.60
2018-07-09T11:24:59.108Z,23.50
2018-07-09T11:27:28.378Z,23.40
2018-07-09T11:29:58.335Z,23.60
2018-07-09T11:32:29.478Z,23.60
2018-07-09T11:34:59.715Z,23.70
2018-07-09T11:37:28.771Z,23.70
2018-07-09T11:39:57.475Z,23.80
2018-07-09T11:42:26.407Z,24.30
2018-07-09T11:44:55.015Z,24.70
2018-07-09T11:47:24.641Z,25.00
2018-07-09T11:49:54.670Z,25.40
2018-07-09T11:52:24.527Z,25.80
2018-07-09T11:54:53.132Z,26.30
2018-07-09T11:57:22.310Z,26.90
2018-07-09T11:59:54.470Z,27.20
2018-07-09T12:02:24.098Z,27.10
2018-07-09T12:04:53.591Z,26.80
2018-07-09T12:07:22.058Z,26.50
2018-07-09T12:09:51.261Z,26.10
2018-07-09T12:12:20.603Z,25.70
2018-07-09T12:14:49.122Z,25.70
2018-07-09T12:17:18.040Z,25.70
2018-07-09T12:19:47.892Z,25.80
2018-07-09T12:22:18.899Z,25.80
2018-07-09T12:24:47.450Z,26.10
2018-07-09T12:27:15.970Z,26.20
2018-07-09T12:29:44.628Z,26.20
2018-07-09T12:32:13.826Z,26.50
2018-07-09T12:34:42.484Z,26.90
2018-07-09T12:37:11.262Z,27.60
2018-07-09T12:39:40.647Z,28.20
2018-07-09T12:42:09.245Z,28.60
2018-07-09T12:44:39.355Z,29.00
2018-07-09T12:47:07.923Z,29.20
2018-07-09T12:49:36.633Z,29.50
2018-07-09T12:52:05.374Z,29.50
2018-07-09T12:54:34.537Z,29.60
2018-07-09T12:57:03.149Z,29.80
2018-07-09T12:59:33.199Z,30.20
2018-07-09T13:02:02.503Z,30.40
2018-07-09T13:04:33.114Z,30.50
2018-07-09T13:07:03.914Z,30.90
2018-07-09T13:09:32.706Z,31.10
2018-07-09T13:12:03.239Z,31.00
2018-07-09T13:14:32.017Z,30.50
2018-07-09T13:17:01.177Z,29.80
2018-07-09T13:19:31.194Z,29.20
2018-07-09T13:21:59.949Z,29.00
2018-07-09T13:24:28.628Z,29.00
2018-07-09T13:26:57.929Z,29.00
2018-07-09T13:29:28.129Z,28.90
2018-07-09T13:31:58.214Z,28.80
2018-07-09T13:34:27.376Z,28.30
2018-07-09T13:36:56.057Z,28.10
2018-07-09T13:39:25.177Z,27.80
2018-07-09T13:41:55.314Z,27.60
2018-07-09T13:44:24.974Z,27.90
2018-07-09T13:46:53.478Z,28.20
2018-07-09T13:49:22.529Z,28.30
2018-07-09T13:51:51.771Z,28.70
2018-07-09T13:54:21.684Z,28.90
2018-07-09T13:56:53.626Z,29.10
2018-07-09T13:59:22.767Z,29.00
2018-07-09T14:01:52.022Z,29.40
2018-07-09T14:04:21.652Z,28.90
2018-07-09T14:06:50.945Z,28.20
2018-07-09T14:09:19.856Z,27.60
2018-07-09T14:11:50.036Z,27.10
2018-07-09T14:14:19.172Z,26.70
2018-07-09T14:16:47.738Z,26.40
2018-07-09T14:20:44.860Z,26.20
2018-07-09T14:23:17.261Z,25.90
2018-07-09T14:25:46.973Z,25.50
2018-07-09T14:28:15.568Z,25.30
2018-07-09T14:30:44.707Z,25.20
2018-07-09T14:33:13.320Z,25.10
2018-07-09T14:35:42.703Z,25.00
2018-07-09T14:38:12.086Z,24.90
2018-07-09T14:40:42.422Z,24.80
2018-07-09T14:43:11.025Z,24.60
2018-07-09T14:45:39.619Z,24.40
2018-07-09T14:48:09.336Z,24.10
2018-07-09T14:50:37.931Z,23.80
2018-07-09T14:53:07.318Z,23.40
2018-07-09T14:55:36.911Z,23.20
2018-07-09T14:58:05.418Z,23.00
2018-07-09T15:00:38.358Z,22.90
2018-07-09T15:03:08.678Z,23.10
2018-07-09T15:05:37.256Z,23.70
2018-07-09T15:08:06.839Z,24.50
2018-07-09T15:10:35.493Z,26.40
2018-07-09T15:13:04.188Z,26.50
2018-07-09T15:15:32.717Z,25.70
2018-07-09T15:18:01.320Z,25.20
2018-07-09T15:20:30.984Z,25.00
2018-07-09T15:22:59.634Z,24.90
2018-07-09T15:25:28.194Z,25.00
2018-07-09T15:27:57.676Z,25.70
2018-07-09T15:30:27.308Z,28.50
2018-07-09T15:35:24.519Z,34.70
2018-07-09T15:37:53.174Z,37.50
2018-07-09T15:40:22.447Z,36.30
2018-07-09T15:42:51.513Z,34.40
2018-07-09T15:45:24.634Z,33.40
2018-07-09T15:47:53.271Z,32.40
2018-07-09T15:50:21.878Z,32.20
2018-07-09T15:52:51.452Z,31.30
2018-07-09T15:55:20.233Z,29.70
2018-07-09T15:57:49.507Z,28.50
2018-07-09T16:00:18.069Z,27.80
2018-07-09T16:02:47.547Z,27.40
2018-07-09T16:05:16.108Z,27.10
2018-07-09T16:07:44.841Z,26.70
2018-07-09T16:10:13.462Z,26.30
2018-07-09T16:12:43.095Z,26.50
2018-07-09T16:15:11.736Z,26.90
2018-07-09T16:17:41.079Z,27.70
2018-07-09T16:20:10.405Z,27.70
2018-07-09T16:22:39.549Z,27.40
2018-07-09T16:25:08.217Z,27.30
2018-07-09T16:27:37.330Z,27.50
2018-07-09T16:30:06.713Z,27.30
2018-07-09T16:32:36.862Z,27.10
2018-07-09T16:35:05.396Z,26.90
2018-07-09T16:37:35.500Z,26.30
2018-07-09T16:40:05.172Z,25.70
2018-07-09T16:42:33.831Z,25.20
2018-07-09T16:45:03.863Z,24.80
2018-07-09T16:47:32.401Z,24.60
2018-07-09T16:50:01.648Z,24.40
2018-07-09T16:54:59.921Z,24.00
2018-07-09T16:57:28.520Z,23.80
2018-07-09T16:59:57.151Z,23.90
2018-07-09T17:02:26.627Z,24.00
2018-07-09T17:04:55.258Z,24.10
2018-07-09T17:07:24.491Z,24.30
2018-07-09T17:09:53.863Z,24.80
2018-07-09T17:12:22.560Z,25.90
2018-07-09T17:14:51.208Z,26.50
2018-07-09T17:17:20.406Z,26.60
2018-07-09T17:19:49.559Z,26.10
2018-07-09T17:22:18.815Z,25.40
2018-07-09T17:24:51.536Z,25.00
2018-07-09T17:27:21.346Z,24.90
2018-07-09T17:29:50.082Z,25.60
2018-07-09T17:32:19.762Z,27.00
2018-07-09T17:34:49.006Z,27.20
2018-07-09T17:37:17.586Z,26.80
2018-07-09T17:39:46.970Z,26.00
2018-07-09T17:42:15.637Z,25.50
2018-07-09T17:44:44.397Z,24.80
2018-07-09T17:47:13.151Z,24.20
2018-07-09T17:49:41.899Z,23.60
2018-07-09T17:52:10.608Z,22.90
2018-07-09T17:54:39.251Z,22.50
2018-07-09T17:57:07.854Z,22.20
2018-07-09T17:59:36.725Z,22.00
2018-07-09T18:02:07.409Z,21.70
2018-07-09T18:04:38.123Z,20.90
2018-07-09T18:07:07.224Z,20.90
2018-07-09T18:09:35.997Z,20.60
2018-07-09T18:12:04.799Z,20.50
2018-07-09T18:14:33.516Z,20.30
2018-07-09T18:17:04.205Z,20.00
2018-07-09T18:19:33.891Z,19.80
2018-07-09T18:22:02.978Z,19.70
2018-07-09T18:24:32.915Z,19.60
2018-07-09T18:27:02.831Z,19.60
2018-07-09T18:29:31.749Z,19.50
2018-07-09T18:32:01.543Z,19.40
2018-07-09T18:34:32.134Z,19.40
2018-07-09T18:37:01.672Z,18.70
2018-07-09T18:39:30.433Z,19.30
2018-07-09T18:41:59.749Z,19.30
2018-07-09T18:44:30.130Z,19.30
2018-07-09T18:47:00.022Z,19.20
2018-07-09T18:49:30.198Z,19.10
2018-07-09T18:51:59.554Z,18.90
2018-07-09T18:56:57.402Z,18.60
2018-07-09T18:59:26.143Z,18.50
2018-07-09T19:01:54.822Z,18.40
2018-07-09T19:04:24.035Z,18.40
2018-07-09T19:07:01.076Z,18.40
2018-07-09T19:09:30.925Z,18.40
2018-07-09T19:12:01.906Z,18.30
2018-07-09T19:14:35.702Z,18.30
2018-07-09T19:17:45.684Z,18.30
2018-07-09T19:20:25.493Z,18.30
2018-07-09T19:22:53.002Z,18.20
2018-07-09T19:25:20.420Z,18.20
2018-07-09T19:27:47.795Z,18.20
2018-07-09T19:30:15.203Z,18.20
2018-07-09T19:32:43.299Z,18.20
2018-07-09T19:35:12.492Z,18.20
2018-07-09T19:37:40.310Z,18.10
2018-07-09T19:40:07.630Z,18.10
2018-07-09T19:42:35.338Z,18.20
2018-07-09T19:45:02.782Z,18.20
2018-07-09T19:47:30.185Z,18.20
2018-07-09T19:49:57.667Z,18.20
2018-07-09T19:52:26.459Z,18.10
2018-07-09T19:54:54.260Z,18.10
2018-07-09T19:57:21.564Z,18.00
2018-07-09T19:59:48.925Z,18.00
2018-07-09T20:02:16.591Z,18.00
2018-07-09T20:04:43.993Z,18.00
2018-07-09T20:07:12.764Z,17.90
2018-07-09T20:09:45.305Z,17.80
2018-07-09T20:12:17.982Z,17.90
2018-07-09T20:17:23.680Z,17.80
2018-07-09T20:19:51.043Z,17.90
2018-07-09T20:22:18.366Z,17.90
2018-07-09T20:24:46.655Z,17.80
2018-07-09T20:27:14.061Z,17.80
2018-07-09T20:29:41.752Z,17.70
2018-07-09T20:32:09.398Z,17.70
2018-07-09T20:34:36.793Z,17.60
2018-07-09T20:37:04.150Z,17.60
2018-07-09T20:39:31.535Z,17.50
2018-07-09T20:41:58.920Z,17.50
2018-07-09T20:44:26.272Z,17.40
2018-07-09T20:46:53.750Z,17.40
2018-07-09T20:49:21.104Z,17.30
2018-07-09T20:51:48.499Z,17.30
2018-07-09T20:54:15.821Z,17.30
2018-07-09T20:56:43.899Z,17.20
2018-07-09T20:59:12.389Z,17.20
2018-07-09T21:01:39.780Z,17.20
2018-07-09T21:04:12.357Z,17.10
2018-07-09T21:06:39.789Z,17.10
2018-07-09T21:09:07.689Z,17.00
2018-07-09T21:11:35.812Z,17.00
2018-07-09T21:14:03.171Z,16.90
2018-07-09T21:16:30.536Z,16.90
2018-07-09T21:18:57.906Z,16.90
2018-07-09T21:21:28.391Z,16.90
2018-07-09T21:23:56.783Z,16.90
2018-07-09T21:26:24.470Z,16.90
2018-07-09T21:28:51.969Z,16.90
2018-07-09T21:31:19.323Z,16.90
2018-07-09T21:33:47.485Z,16.80
2018-07-09T21:36:15.291Z,16.80
2018-07-09T21:38:44.421Z,16.80
2018-07-09T21:41:12.806Z,16.80
2018-07-09T21:43:40.276Z,16.80
2018-07-09T21:46:07.667Z,16.80
2018-07-09T21:48:35.368Z,16.80
2018-07-09T21:51:03.346Z,16.70
2018-07-09T21:53:30.776Z,16.70
2018-07-09T21:56:17.974Z,16.70
2018-07-09T21:58:45.502Z,16.70
2018-07-09T22:01:13.622Z,16.70
2018-07-09T22:03:41.818Z,16.60
2018-07-09T22:06:09.160Z,16.60
2018-07-09T22:08:36.521Z,16.50
2018-07-09T22:11:04.644Z,16.40
2018-07-09T22:13:32.292Z,16.40
2018-07-09T22:15:59.841Z,16.40
2018-07-09T22:18:27.287Z,16.40
2018-07-09T22:20:54.797Z,16.40
2018-07-09T22:23:22.419Z,16.30
2018-07-09T22:25:52.769Z,16.30
2018-07-09T22:28:20.131Z,16.20
2018-07-09T22:30:49.207Z,16.20
2018-07-09T22:33:17.965Z,16.20
2018-07-09T22:35:46.497Z,16.10
2018-07-09T22:38:15.096Z,16.10
2018-07-09T22:40:43.639Z,16.20
2018-07-09T22:43:23.511Z,16.10
2018-07-09T22:45:52.308Z,16.10
2018-07-09T22:48:20.854Z,16.00
2018-07-09T22:50:49.402Z,15.90
2018-07-09T22:53:18.023Z,15.90
2018-07-09T22:55:57.696Z,15.90
2018-07-09T22:58:27.202Z,15.90
2018-07-09T23:00:56.376Z,15.90
